createdAt,value
2018-11-23T00:02:14.115Z,102409.05
2018-11-23T00:04:41.583Z,102399.95
2018-11-23T00:07:09.121Z,102402.60
2018-11-23T00:09:36.585Z,102394.76
2018-11-23T00:12:04.115Z,102384.41
2018-11-23T00:14:31.633Z,102380.61
2018-11-23T00:16:59.121Z,102374.42
2018-11-23T00:19:26.624Z,102379.93
2018-11-23T00:21:54.066Z,102377.67
2018-11-23T00:24:21.476Z,102371.95
2018-11-23T00:26:48.959Z,102360.16
2018-11-23T00:29:16.451Z,102365.41
2018-11-23T00:31:43.889Z,102358.05
2018-11-23T00:34:11.342Z,102357.61
2018-11-23T00:36:38.786Z,102354.20
2018-11-23T00:39:06.727Z,102348.06
2018-11-23T00:41:34.261Z,102344.91
2018-11-23T00:44:01.797Z,102343.97
2018-11-23T00:46:29.850Z,102342.63
2018-11-23T00:48:57.320Z,102330.05
2018-11-23T00:51:24.734Z,102330.00
2018-11-23T00:53:52.267Z,102323.50
2018-11-23T00:56:19.737Z,102322.25
2018-11-23T00:58:47.276Z,102310.95
2018-11-23T01:01:14.768Z,102306.26
2018-11-23T01:03:42.263Z,102307.61
2018-11-23T01:06:09.777Z,102303.66
2018-11-23T01:08:37.267Z,102301.86
2018-11-23T01:11:05.214Z,102301.02
2018-11-23T01:13:32.675Z,102297.97
2018-11-23T01:16:00.120Z,102307.87
2018-11-23T01:18:27.520Z,102303.69
2018-11-23T01:20:55.006Z,102305.34
2018-11-23T01:23:22.467Z,102300.95
2018-11-23T01:25:50.357Z,102287.97
2018-11-23T01:28:17.795Z,102281.02
2018-11-23T01:30:45.262Z,102286.11
2018-11-23T01:33:12.746Z,102281.23
2018-11-23T01:35:40.212Z,102279.48
2018-11-23T01:38:07.665Z,102282.53
2018-11-23T01:40:35.183Z,102275.14
2018-11-23T01:43:02.709Z,102269.50
2018-11-23T01:45:30.212Z,102270.80
2018-11-23T01:47:57.956Z,102265.61
2018-11-23T01:50:26.709Z,102260.36
2018-11-23T01:52:54.173Z,102253.42
2018-11-23T01:55:22.358Z,102249.58
2018-11-23T01:57:49.894Z,102245.68
2018-11-23T02:00:19.456Z,102240.48
2018-11-23T02:02:47.497Z,102230.86
2018-11-23T02:05:15.046Z,102229.95
2018-11-23T02:07:42.532Z,102222.94
2018-11-23T02:10:11.263Z,102222.48
2018-11-23T02:12:38.815Z,102220.69
2018-11-23T02:15:10.116Z,102210.16
2018-11-23T02:17:37.629Z,102202.24
2018-11-23T02:20:07.971Z,102201.32
2018-11-23T02:22:35.451Z,102191.66
2018-11-23T02:25:02.982Z,102186.42
2018-11-23T02:27:30.522Z,102182.97
2018-11-23T02:29:58.009Z,102180.38
2018-11-23T02:32:25.482Z,102184.31
2018-11-23T02:34:53.036Z,102186.47
2018-11-23T02:37:20.505Z,102188.25
2018-11-23T02:39:47.986Z,102200.38
2018-11-23T02:42:15.465Z,102192.05
2018-11-23T02:44:42.942Z,102185.97
2018-11-23T02:47:10.353Z,102184.22
2018-11-23T02:49:38.145Z,102179.38
2018-11-23T02:52:05.730Z,102172.49
2018-11-23T02:54:33.216Z,102175.09
2018-11-23T02:57:00.633Z,102174.24
2018-11-23T02:59:28.088Z,102170.66
2018-11-23T03:01:55.617Z,102176.09
2018-11-23T03:04:23.101Z,102174.17
2018-11-23T03:06:50.575Z,102183.25
2018-11-23T03:09:18.011Z,102179.89
2018-11-23T03:11:45.567Z,102173.45
2018-11-23T03:14:13.026Z,102165.72
2018-11-23T03:16:40.542Z,102164.47
2018-11-23T03:19:08.368Z,102167.52
2018-11-23T03:21:35.906Z,102162.28
2018-11-23T03:24:03.451Z,102163.62
2018-11-23T03:26:30.883Z,102164.92
2018-11-23T03:28:58.423Z,102162.28
2018-11-23T03:31:28.759Z,102157.50
2018-11-23T03:33:56.275Z,102153.61
2018-11-23T03:36:24.354Z,102143.72
2018-11-23T03:38:52.123Z,102139.38
2018-11-23T03:41:19.624Z,102137.68
2018-11-23T03:43:47.056Z,102136.78
2018-11-23T03:46:15.589Z,102133.78
2018-11-23T03:48:43.037Z,102130.34
2018-11-23T03:51:10.700Z,102135.53
2018-11-23T03:53:38.237Z,102142.02
2018-11-23T03:56:05.780Z,102139.91
2018-11-23T03:58:33.271Z,102127.20
2018-11-23T04:01:00.730Z,102138.57
2018-11-23T04:03:28.184Z,102129.00
2018-11-23T04:05:55.683Z,102119.88
2018-11-23T04:08:23.166Z,102118.58
2018-11-23T04:10:50.613Z,102113.83
2018-11-23T04:13:18.065Z,102102.16
2018-11-23T04:15:45.538Z,102098.62
2018-11-23T04:18:12.984Z,102107.70
2018-11-23T04:20:44.936Z,102094.73
2018-11-23T04:23:12.377Z,102093.39
2018-11-23T04:25:39.857Z,102086.90
2018-11-23T04:28:07.330Z,102081.30
2018-11-23T04:30:34.816Z,102079.56
2018-11-23T04:33:02.293Z,102078.71
2018-11-23T04:35:29.782Z,102072.67
2018-11-23T04:37:57.249Z,102075.63
2018-11-23T04:40:24.699Z,102079.47
2018-11-23T04:42:52.166Z,102075.18
2018-11-23T04:45:19.724Z,102067.75
2018-11-23T04:47:47.136Z,102066.82
2018-11-23T04:50:15.417Z,102059.84
2018-11-23T04:52:43.386Z,102060.20
2018-11-23T04:55:11.035Z,102052.86
2018-11-23T04:57:38.514Z,102061.05
2018-11-23T05:00:08.723Z,102044.49
2018-11-23T05:02:36.218Z,102050.63
2018-11-23T05:05:04.572Z,102045.79
2018-11-23T05:07:32.018Z,102052.72
2018-11-23T05:09:59.513Z,102049.23
2018-11-23T05:12:26.960Z,102043.16
2018-11-23T05:14:54.423Z,102042.75
2018-11-23T05:17:21.896Z,102048.30
2018-11-23T05:19:49.370Z,102044.84
2018-11-23T05:22:16.833Z,102046.14
2018-11-23T05:24:44.334Z,102048.30
2018-11-23T05:27:11.853Z,102046.50
2018-11-23T05:29:39.351Z,102041.72
2018-11-23T05:32:06.866Z,102039.56
2018-11-23T05:34:34.331Z,102035.23
2018-11-23T05:37:01.829Z,102022.27
2018-11-23T05:39:29.255Z,102024.41
2018-11-23T05:41:56.785Z,102017.92
2018-11-23T05:44:24.244Z,102026.59
2018-11-23T05:46:51.711Z,102020.06
2018-11-23T05:49:19.172Z,102014.44
2018-11-23T05:51:46.649Z,102008.80
2018-11-23T05:54:14.180Z,102013.14
2018-11-23T05:56:41.652Z,102010.10
2018-11-23T05:59:09.116Z,101995.39
2018-11-23T06:01:36.595Z,101992.35
2018-11-23T06:04:04.314Z,101986.72
2018-11-23T06:06:31.850Z,101982.42
2018-11-23T06:08:59.295Z,101978.05
2018-11-23T06:11:26.808Z,101978.94
2018-11-23T06:13:54.269Z,101976.79
2018-11-23T06:16:21.765Z,101972.86
2018-11-23T06:18:49.275Z,101968.20
2018-11-23T06:21:16.804Z,101967.40
2018-11-23T06:23:44.354Z,101960.51
2018-11-23T06:26:17.017Z,101958.36
2018-11-23T06:28:51.123Z,101955.41
2018-11-23T06:31:18.569Z,101955.86
2018-11-23T06:33:46.934Z,101955.58
2018-11-23T06:36:14.466Z,101960.38
2018-11-23T06:38:41.974Z,101960.02
2018-11-23T06:41:10.423Z,101957.87
2018-11-23T06:43:37.121Z,101960.14
2018-11-23T06:46:06.369Z,101962.78
2018-11-23T06:48:33.881Z,101966.30
2018-11-23T06:51:01.354Z,101967.69
2018-11-23T06:53:28.841Z,101958.65
2018-11-23T06:55:57.205Z,101953.99
2018-11-23T06:58:24.807Z,101954.08
2018-11-23T07:00:52.306Z,101950.27
2018-11-23T07:03:19.769Z,101951.61
2018-11-23T07:05:47.282Z,101950.83
2018-11-23T07:08:14.764Z,101945.69
2018-11-23T07:10:42.230Z,101948.33
2018-11-23T07:13:09.675Z,101942.28
2018-11-23T07:15:37.519Z,101936.65
2018-11-23T07:18:05.235Z,101941.44
2018-11-23T07:20:32.710Z,101950.64
2018-11-23T07:23:00.151Z,101938.55
2018-11-23T07:25:27.691Z,101935.55
2018-11-23T07:27:55.213Z,101939.98
2018-11-23T07:30:24.909Z,101934.41
2018-11-23T07:32:52.370Z,101942.24
2018-11-23T07:35:19.891Z,101940.58
2018-11-23T07:37:47.495Z,101938.02
2018-11-23T07:40:28.754Z,101926.42
2018-11-23T07:42:56.513Z,101919.08
2018-11-23T07:45:24.100Z,101921.83
2018-11-23T07:47:51.609Z,101918.01
2018-11-23T07:50:19.105Z,101925.55
2018-11-23T07:52:46.583Z,101920.05
2018-11-23T07:55:14.004Z,101919.28
2018-11-23T07:57:41.917Z,101917.69
2018-11-23T08:00:10.990Z,101919.09
2018-11-23T08:02:38.540Z,101907.03
2018-11-23T08:05:08.298Z,101905.50
2018-11-23T08:07:35.795Z,101903.49
2018-11-23T08:10:02.989Z,101893.61
2018-11-23T08:12:30.473Z,101891.08
2018-11-23T08:14:57.957Z,101892.48
2018-11-23T08:17:25.425Z,101904.25
2018-11-23T08:19:52.934Z,101894.81
2018-11-23T08:22:20.464Z,101901.48
2018-11-23T08:24:47.921Z,101898.58
2018-11-23T08:27:15.398Z,101894.33
2018-11-23T08:29:42.846Z,101886.08
2018-11-23T08:32:10.306Z,101890.11
2018-11-23T08:34:37.772Z,101898.08
2018-11-23T08:37:05.208Z,101893.01
2018-11-23T08:39:32.735Z,101903.06
2018-11-23T08:42:00.169Z,101895.36
2018-11-23T08:44:27.632Z,101903.64
2018-11-23T08:46:56.219Z,101898.05
2018-11-23T08:49:23.678Z,101899.48
2018-11-23T08:51:51.145Z,101892.15
2018-11-23T08:54:18.592Z,101889.25
2018-11-23T08:56:46.119Z,101874.59
2018-11-23T08:59:13.682Z,101878.11
2018-11-23T09:01:41.177Z,101876.04
2018-11-23T09:04:08.671Z,101877.84
2018-11-23T09:06:36.189Z,101867.05
2018-11-23T09:09:06.047Z,101874.05
2018-11-23T09:11:33.811Z,101870.27
2018-11-23T09:14:01.557Z,101874.70
2018-11-23T09:16:29.356Z,101874.36
2018-11-23T09:18:57.082Z,101872.31
2018-11-23T09:21:24.848Z,101874.11
2018-11-23T09:23:52.725Z,101874.67
2018-11-23T09:26:20.511Z,101872.53
2018-11-23T09:28:48.278Z,101867.81
2018-11-23T09:31:16.067Z,101867.48
2018-11-23T09:33:43.803Z,101854.89
2018-11-23T09:36:11.606Z,101862.03
2018-11-23T09:38:39.414Z,101864.27
2018-11-23T09:41:07.200Z,101865.20
2018-11-23T09:43:35.083Z,101866.55
2018-11-23T09:46:02.884Z,101865.77
2018-11-23T09:48:30.811Z,101864.09
2018-11-23T09:50:58.649Z,101869.42
2018-11-23T09:53:26.448Z,101863.84
2018-11-23T09:55:54.260Z,101862.16
2018-11-23T09:58:22.046Z,101863.49
2018-11-23T10:00:49.861Z,101868.31
2018-11-23T10:03:17.616Z,101863.93
2018-11-23T10:05:45.412Z,101856.11
2018-11-23T10:08:13.218Z,101850.06
2018-11-23T10:10:41.027Z,101857.91
2018-11-23T10:13:08.808Z,101852.72
2018-11-23T10:15:36.638Z,101842.75
2018-11-23T10:18:04.641Z,101825.41
2018-11-23T10:20:33.410Z,101825.47
2018-11-23T10:23:01.211Z,101818.50
2018-11-23T10:25:30.320Z,101821.16
2018-11-23T10:27:58.094Z,101814.23
2018-11-23T10:30:27.042Z,101812.11
2018-11-23T10:32:56.314Z,101814.77
2018-11-23T10:35:24.283Z,101816.97
2018-11-23T10:37:53.467Z,101815.69
2018-11-23T10:40:22.459Z,101814.88
2018-11-23T10:42:50.474Z,101813.59
2018-11-23T10:45:22.287Z,101816.21
2018-11-23T10:47:50.981Z,101807.09
2018-11-23T10:50:20.942Z,101812.78
2018-11-23T10:52:48.905Z,101801.04
2018-11-23T10:55:18.670Z,101800.17
2018-11-23T10:57:46.706Z,101792.83
2018-11-23T11:00:21.128Z,101789.41
2018-11-23T11:02:54.896Z,101792.16
2018-11-23T11:05:29.415Z,101779.22
2018-11-23T11:08:00.669Z,101771.48
2018-11-23T11:10:28.536Z,101770.71
2018-11-23T11:12:56.383Z,101765.13
2018-11-23T11:17:45.790Z,101762.65
2018-11-23T11:20:13.544Z,101770.09
2018-11-23T11:22:41.363Z,101769.75
2018-11-23T11:25:09.893Z,101766.34
2018-11-23T11:27:38.187Z,101757.24
2018-11-23T11:30:08.897Z,101762.05
2018-11-23T11:32:36.738Z,101755.13
2018-11-23T11:35:05.501Z,101756.45
2018-11-23T11:37:33.246Z,101753.88
2018-11-23T11:40:01.084Z,101749.54
2018-11-23T11:42:28.896Z,101744.75
2018-11-23T11:44:56.702Z,101754.82
2018-11-23T11:47:24.433Z,101750.92
2018-11-23T11:49:59.056Z,101755.30
2018-11-23T11:52:20.753Z,101753.59
2018-11-23T11:54:48.513Z,101753.19
2018-11-23T11:57:16.396Z,101752.36
2018-11-23T11:59:44.181Z,101755.02
2018-11-23T12:02:11.978Z,101759.84
2018-11-23T12:04:39.726Z,101745.48
2018-11-23T12:07:07.622Z,101752.92
2018-11-23T12:09:35.440Z,101751.18
2018-11-23T12:12:03.232Z,101748.15
2018-11-23T12:14:31.345Z,101747.30
2018-11-23T12:16:59.227Z,101746.05
2018-11-23T12:19:27.000Z,101746.48
2018-11-23T12:21:54.746Z,101744.31
2018-11-23T12:24:22.545Z,101738.66
2018-11-23T12:26:50.318Z,101747.41
2018-11-23T12:29:18.266Z,101744.81
2018-11-23T12:31:46.150Z,101750.91
2018-11-23T12:34:13.948Z,101750.50
2018-11-23T12:36:41.739Z,101755.33
2018-11-23T12:39:09.499Z,101752.72
2018-11-23T12:41:37.292Z,101754.47
2018-11-23T12:44:05.089Z,101747.94
2018-11-23T12:46:32.870Z,101744.47
2018-11-23T12:49:00.670Z,101755.37
2018-11-23T12:51:28.460Z,101753.65
2018-11-23T12:53:56.471Z,101741.87
2018-11-23T12:56:24.251Z,101744.50
2018-11-23T12:58:52.030Z,101736.65
2018-11-23T13:01:20.014Z,101732.73
2018-11-23T13:03:47.801Z,101733.16
2018-11-23T13:06:15.606Z,101731.84
2018-11-23T13:08:43.505Z,101736.66
2018-11-23T13:11:11.379Z,101741.02
2018-11-23T13:13:39.155Z,101736.24
2018-11-23T13:16:07.089Z,101728.81
2018-11-23T13:18:34.922Z,101737.55
2018-11-23T13:21:02.692Z,101724.45
2018-11-23T13:23:30.787Z,101724.00
2018-11-23T13:25:58.574Z,101736.24
2018-11-23T13:28:26.382Z,101723.57
2018-11-23T13:30:54.474Z,101718.76
2018-11-23T13:33:22.222Z,101717.45
2018-11-23T13:35:50.035Z,101702.62
2018-11-23T13:38:17.911Z,101706.97
2018-11-23T13:40:45.735Z,101701.31
2018-11-23T13:43:13.526Z,101699.11
2018-11-23T13:45:41.566Z,101712.20
2018-11-23T13:48:09.361Z,101698.69
2018-11-23T13:50:37.130Z,101702.61
2018-11-23T13:53:05.188Z,101699.99
2018-11-23T13:55:32.995Z,101698.68
2018-11-23T13:58:01.305Z,101699.11
2018-11-23T14:00:29.677Z,101703.91
2018-11-23T14:02:57.499Z,101689.51
2018-11-23T14:05:27.717Z,101692.13
2018-11-23T14:07:57.241Z,101686.00
2018-11-23T14:10:25.966Z,101675.95
2018-11-23T14:12:53.979Z,101688.19
2018-11-23T14:15:23.455Z,101699.08
2018-11-23T14:17:52.215Z,101674.22
2018-11-23T14:20:20.804Z,101691.23
2018-11-23T14:22:48.663Z,101683.80
2018-11-23T14:25:17.813Z,101673.33
2018-11-23T14:27:46.078Z,101684.27
2018-11-23T14:30:16.234Z,101631.39
2018-11-23T14:32:44.149Z,101683.38
2018-11-23T14:35:13.447Z,101676.41
2018-11-23T14:37:41.823Z,101687.30
2018-11-23T14:40:10.728Z,101705.63
2018-11-23T14:42:39.211Z,101699.08
2018-11-23T14:45:11.033Z,101698.66
2018-11-23T14:47:39.172Z,101688.59
2018-11-23T14:50:11.394Z,101691.63
2018-11-23T14:52:39.361Z,101696.02
2018-11-23T14:57:46.216Z,101688.58
2018-11-23T15:00:19.731Z,101686.39
2018-11-23T15:02:48.917Z,101685.95
2018-11-23T15:05:17.307Z,101686.38
2018-11-23T15:07:45.147Z,101682.88
2018-11-23T15:10:14.853Z,101689.88
2018-11-23T15:12:43.075Z,101693.34
2018-11-23T15:15:14.437Z,101696.83
2018-11-23T15:17:43.287Z,101703.80
2018-11-23T15:20:13.884Z,101702.95
2018-11-23T15:22:42.118Z,101697.25
2018-11-23T15:25:10.162Z,101670.21
2018-11-23T15:27:38.510Z,101683.30
2018-11-23T15:30:12.088Z,101685.45
2018-11-23T15:32:45.695Z,101678.05
2018-11-23T15:35:14.093Z,101672.81
2018-11-23T15:37:42.028Z,101663.17
2018-11-23T15:40:15.079Z,101671.44
2018-11-23T15:42:42.872Z,101670.58
2018-11-23T15:45:14.631Z,101608.94
2018-11-23T15:47:42.736Z,101684.92
2018-11-23T15:50:14.256Z,101694.91
2018-11-23T15:52:42.166Z,101660.47
2018-11-23T15:55:13.288Z,101658.72
2018-11-23T15:57:42.048Z,101674.80
2018-11-23T16:00:14.443Z,101667.80
2018-11-23T16:02:42.828Z,101663.02
2018-11-23T16:05:11.450Z,101668.66
2018-11-23T16:07:39.432Z,101654.28
2018-11-23T16:10:20.719Z,101649.05
2018-11-23T16:12:49.792Z,101658.61
2018-11-23T16:15:18.533Z,101679.11
2018-11-23T16:17:46.715Z,101675.19
2018-11-23T16:20:20.873Z,101665.61
2018-11-23T16:22:50.858Z,101661.68
2018-11-23T16:25:18.771Z,101665.16
2018-11-23T16:27:48.044Z,101660.39
2018-11-23T16:30:18.963Z,101657.79
2018-11-23T16:32:47.958Z,101656.48
2018-11-23T16:35:17.489Z,101649.08
2018-11-23T16:37:45.555Z,101646.91
2018-11-23T16:40:14.827Z,101652.60
2018-11-23T16:42:42.840Z,101644.33
2018-11-23T16:45:15.132Z,101648.27
2018-11-23T16:47:43.376Z,101660.47
2018-11-23T16:50:11.765Z,101666.56
2018-11-23T16:52:40.423Z,101667.42
2018-11-23T16:55:09.812Z,101657.41
2018-11-23T16:57:37.846Z,101673.53
2018-11-23T17:00:08.931Z,101672.22
2018-11-23T17:02:36.806Z,101669.19
2018-11-23T17:05:04.708Z,101667.89
2018-11-23T17:07:32.234Z,101664.40
2018-11-23T17:09:59.771Z,101658.30
2018-11-23T17:12:27.405Z,101654.86
2018-11-23T17:14:54.928Z,101674.94
2018-11-23T17:17:22.472Z,101665.81
2018-11-23T17:19:50.218Z,101664.11
2018-11-23T17:22:17.665Z,101661.09
2018-11-23T17:24:45.156Z,101675.91
2018-11-23T17:27:12.858Z,101672.00
2018-11-23T17:29:40.350Z,101660.23
2018-11-23T17:32:07.895Z,101665.47
2018-11-23T17:34:35.759Z,101656.31
2018-11-23T17:37:03.308Z,101659.40
2018-11-23T17:39:31.348Z,101661.14
2018-11-23T17:41:59.006Z,101655.05
2018-11-23T17:44:26.594Z,101658.98
2018-11-23T17:46:54.126Z,101662.02
2018-11-23T17:49:21.842Z,101662.02
2018-11-23T17:51:49.353Z,101661.14
2018-11-23T17:54:16.946Z,101669.88
2018-11-23T17:56:44.586Z,101673.81
2018-11-23T17:59:12.174Z,101682.09
2018-11-23T18:01:39.682Z,101682.98
2018-11-23T18:04:07.268Z,101688.64
2018-11-23T18:06:34.810Z,101679.05
2018-11-23T18:09:03.188Z,101669.88
2018-11-23T18:11:30.853Z,101676.42
2018-11-23T18:13:58.386Z,101671.64
2018-11-23T18:16:25.893Z,101666.83
2018-11-23T18:18:53.594Z,101665.09
2018-11-23T18:21:21.081Z,101658.08
2018-11-23T18:23:48.623Z,101653.72
2018-11-23T18:26:16.255Z,101645.42
2018-11-23T18:28:43.746Z,101648.04
2018-11-23T18:31:11.288Z,101643.64
2018-11-23T18:33:38.888Z,101636.23
2018-11-23T18:36:06.440Z,101637.08
2018-11-23T18:38:33.950Z,101645.39
2018-11-23T18:41:01.580Z,101637.52
2018-11-23T18:43:29.128Z,101638.82
2018-11-23T18:45:56.584Z,101634.88
2018-11-23T18:48:24.293Z,101635.30
2018-11-23T18:50:51.759Z,101633.56
2018-11-23T18:53:19.265Z,101637.07
2018-11-23T18:55:46.890Z,101642.73
2018-11-23T18:58:15.380Z,101640.10
2018-11-23T19:00:42.866Z,101638.78
2018-11-23T19:03:10.524Z,101633.95
2018-11-23T19:05:38.013Z,101611.66
2018-11-23T19:08:05.585Z,101613.41
2018-11-23T19:10:33.242Z,101607.70
2018-11-23T19:13:00.727Z,101612.08
2018-11-23T19:15:28.226Z,101612.06
2018-11-23T19:17:55.953Z,101604.19
2018-11-23T19:20:23.566Z,101594.99
2018-11-23T19:22:52.309Z,101581.88
2018-11-23T19:25:19.895Z,101581.88
2018-11-23T19:27:47.456Z,101581.44
2018-11-23T19:30:17.151Z,101577.91
2018-11-23T19:32:44.841Z,101581.83
2018-11-23T19:35:12.685Z,101576.58
2018-11-23T19:37:40.094Z,101573.05
2018-11-23T19:40:11.763Z,101573.51
2018-11-23T19:42:39.330Z,101574.81
2018-11-23T19:45:09.444Z,101577.86
2018-11-23T19:47:37.273Z,101582.68
2018-11-23T19:50:06.687Z,101576.98
2018-11-23T19:52:34.124Z,101574.83
2018-11-23T19:55:01.782Z,101572.21
2018-11-23T19:57:29.282Z,101577.00
2018-11-23T19:59:56.769Z,101566.98
2018-11-23T20:02:24.519Z,101549.05
2018-11-23T20:04:52.024Z,101548.63
2018-11-23T20:07:19.464Z,101546.86
2018-11-23T20:09:47.005Z,101543.39
2018-11-23T20:12:14.516Z,101559.98
2018-11-23T20:14:42.024Z,101560.45
2018-11-23T20:17:09.712Z,101562.61
2018-11-23T20:19:37.220Z,101564.38
2018-11-23T20:22:04.870Z,101557.83
2018-11-23T20:24:32.676Z,101553.89
2018-11-23T20:27:00.169Z,101559.14
2018-11-23T20:29:27.669Z,101556.95
2018-11-23T20:31:55.427Z,101559.16
2018-11-23T20:34:22.900Z,101557.39
2018-11-23T20:36:50.391Z,101560.47
2018-11-23T20:39:18.046Z,101556.08
2018-11-23T20:41:45.569Z,101553.93
2018-11-23T20:44:13.040Z,101544.30
2018-11-23T20:46:40.653Z,101539.95
2018-11-23T20:49:08.147Z,101544.77
2018-11-23T20:51:35.674Z,101540.42
2018-11-23T20:54:03.300Z,101541.31
2018-11-23T20:56:30.774Z,101541.75
2018-11-23T20:58:58.318Z,101543.95
2018-11-23T21:01:25.910Z,101544.39
2018-11-23T21:03:53.403Z,101548.33
2018-11-23T21:06:20.995Z,101551.83
2018-11-23T21:08:48.591Z,101545.72
2018-11-23T21:11:16.140Z,101541.38
2018-11-23T21:13:50.527Z,101552.72
2018-11-23T21:16:18.061Z,101551.41
2018-11-23T21:18:45.639Z,101543.55
2018-11-23T21:21:13.180Z,101541.83
2018-11-23T21:23:40.801Z,101545.34
2018-11-23T21:26:08.348Z,101544.03
2018-11-23T21:28:35.975Z,101538.80
2018-11-23T21:31:03.463Z,101539.23
2018-11-23T21:33:30.925Z,101543.16
2018-11-23T21:35:58.596Z,101538.36
2018-11-23T21:38:26.146Z,101530.50
2018-11-23T21:40:53.604Z,101546.65
2018-11-23T21:43:27.983Z,101548.84
2018-11-23T21:45:55.487Z,101547.53
2018-11-23T21:48:23.011Z,101547.11
2018-11-23T21:50:50.712Z,101549.27
2018-11-23T21:53:18.253Z,101540.98
2018-11-23T21:55:45.727Z,101544.48
2018-11-23T21:58:13.323Z,101543.61
2018-11-23T22:00:40.842Z,101539.27
2018-11-23T22:03:08.426Z,101539.27
2018-11-23T22:05:36.241Z,101538.81
2018-11-23T22:08:03.801Z,101534.42
2018-11-23T22:10:31.308Z,101534.02
2018-11-23T22:12:58.989Z,101527.02
2018-11-23T22:15:26.418Z,101465.56
2018-11-23T22:17:55.676Z,101537.97
2018-11-23T22:20:23.829Z,101538.39
2018-11-23T22:22:51.358Z,101527.03
2018-11-23T22:25:19.813Z,101529.23
2018-11-23T22:27:47.416Z,101520.08
2018-11-23T22:30:20.898Z,101522.70
2018-11-23T22:32:48.637Z,101515.72
2018-11-23T22:35:16.235Z,101519.66
2018-11-23T22:37:43.761Z,101531.45
2018-11-23T22:40:15.384Z,101518.34
2018-11-23T22:42:44.015Z,101510.91
2018-11-23T22:45:12.354Z,101514.42
2018-11-23T22:47:39.967Z,101509.61
2018-11-23T22:50:09.084Z,101503.06
2018-11-23T22:52:36.647Z,101518.78
2018-11-23T22:55:04.665Z,101520.09
2018-11-23T22:57:32.141Z,101509.19
2018-11-23T22:59:59.653Z,101507.89
2018-11-23T23:02:27.512Z,101520.11
2018-11-23T23:04:55.071Z,101459.94
2018-11-23T23:07:22.528Z,101523.16
2018-11-23T23:09:50.126Z,101504.84
2018-11-23T23:12:17.571Z,101507.87
2018-11-23T23:14:45.018Z,101495.67
2018-11-23T23:17:12.793Z,101497.87
2018-11-23T23:19:40.254Z,101497.87
2018-11-23T23:22:07.865Z,101510.52
2018-11-23T23:24:35.450Z,101500.92
2018-11-23T23:27:02.882Z,101500.50
2018-11-23T23:29:30.402Z,101492.19
2018-11-23T23:31:58.046Z,101483.49
2018-11-23T23:34:25.584Z,101489.16
2018-11-23T23:36:53.063Z,101481.31
2018-11-23T23:39:20.732Z,101479.12
2018-11-23T23:41:48.246Z,101482.20
2018-11-23T23:44:15.653Z,101485.67
2018-11-23T23:46:43.358Z,101479.12
2018-11-23T23:49:10.830Z,101479.11
2018-11-23T23:51:38.371Z,101472.57
2018-11-23T23:54:06.093Z,101473.87
2018-11-23T23:56:33.591Z,101475.64
2018-11-23T23:59:01.115Z,101478.26
